EPRZ/RZE METAR and TAF weather

Enter ICAO airport designator
Station Type Date Time Source
EPRZ METAR 2020/01/17 22:30 UTC NOAA

EPRZ 172230Z 08007KT 3800 NSC M00/M01 Q1024


Station Type Date Time Source
EPRZ Decoded METAR 2020/01/17 22:30 UTC NOAA

Rzeszow-Jasionka, Poland (EPRZ) 50-06N 022-03E 202M
Jan 17, 2020 - 05:30 PM EST / 2020.01.17 2230 UTC
Wind: from the E (080 degrees) at 8 MPH (7 KT):0
Visibility: 2 mile(s):0
Temperature: 32 F (0 C)
Windchill: 24 F (-4 C):1
Dew Point: 30 F (-1 C)
Relative Humidity: 92%
Pressure (altimeter): 30.24 in. Hg (1024 hPa)
ob: EPRZ 172230Z 08007KT 3800 NSC M00/M01 Q1024
cycle: 22

Station Type Date Time Source
EPRZ TAF 2020/01/17 18:33 UTC NOAA

TAF EPRZ 171730Z 1718/1818 09010KT 3000 BR NSC
TEMPO 1718/1720 1400 BR BKN003 PROB40 1718/1719 0500 FG
BECMG 1719/1722 17012KT 7000
TEMPO 1720/1809 BKN006
BECMG 1810/1813 10003KT

Example: see airport list